createdAt,value
2022-10-08T00:03:37.048Z,101220.47
2022-10-08T00:08:52.319Z,101217.66
2022-10-08T00:14:08.013Z,101227.88
2022-10-08T00:19:23.040Z,101231.97
2022-10-08T00:24:38.019Z,101239.06
2022-10-08T00:29:53.015Z,101241.84
2022-10-08T00:35:08.067Z,101249.16
2022-10-08T00:40:23.006Z,101250.13
2022-10-08T00:45:38.371Z,101247.66
2022-10-08T00:50:54.286Z,101253.78
2022-10-08T00:56:10.374Z,101254.31
2022-10-08T01:01:26.046Z,101236.78
2022-10-08T01:06:41.047Z,101237.31
2022-10-08T01:11:56.032Z,101240.13
2022-10-08T01:17:10.771Z,101241.41
2022-10-08T01:22:26.037Z,101237.09
2022-10-08T01:27:41.342Z,101242.16
2022-10-08T01:32:57.008Z,101235.81
2022-10-08T01:38:12.025Z,101236.00
2022-10-08T01:43:27.102Z,101241.59
2022-10-08T01:48:42.374Z,101239.28
2022-10-08T01:53:58.032Z,101238.75
2022-10-08T01:59:13.003Z,101233.16
2022-10-08T02:04:28.326Z,101238.75
2022-10-08T02:09:44.262Z,101235.50
2022-10-08T02:15:00.362Z,101241.09
2022-10-08T02:20:16.424Z,101237.56
2022-10-08T02:25:32.109Z,101245.72
2022-10-08T02:30:47.327Z,101256.88
2022-10-08T02:36:03.021Z,101260.22
2022-10-08T02:41:18.378Z,101251.81
2022-10-08T02:46:34.061Z,101261.50
2022-10-08T02:51:49.067Z,101248.06
2022-10-08T02:57:08.614Z,101247.31
2022-10-08T03:02:25.068Z,101255.69
2022-10-08T03:07:40.263Z,101259.75
2022-10-08T03:12:56.047Z,101263.81
2022-10-08T03:18:11.036Z,101267.38
2022-10-08T03:23:26.029Z,101270.16
2022-10-08T03:28:41.119Z,101264.56
2022-10-08T03:33:56.039Z,101275.25
2022-10-08T03:39:11.034Z,101282.56
2022-10-08T03:44:26.054Z,101279.00
2022-10-08T03:49:41.372Z,101287.19
2022-10-08T03:54:57.197Z,101294.81
2022-10-08T04:00:13.056Z,101295.88
2022-10-08T04:05:28.026Z,101303.69
2022-10-08T04:10:43.366Z,101307.03
2022-10-08T04:15:59.087Z,101311.31
2022-10-08T04:21:14.076Z,101317.69
2022-10-08T04:26:29.033Z,101316.91
2022-10-08T04:31:44.371Z,101316.41
2022-10-08T04:37:00.139Z,101319.72
2022-10-08T04:42:15.062Z,101326.06
2022-10-08T04:47:30.081Z,101319.97
2022-10-08T04:52:45.306Z,101324.28
2022-10-08T04:58:01.078Z,101328.56
2022-10-08T05:03:16.048Z,101340.50
2022-10-08T05:08:31.358Z,101341.25
2022-10-08T05:13:47.329Z,101357.50
2022-10-08T05:19:03.093Z,101356.97
2022-10-08T05:24:18.120Z,101360.53
2022-10-08T05:29:33.049Z,101365.34
2022-10-08T05:34:48.090Z,101371.16
2022-10-08T05:40:03.089Z,101385.91
2022-10-08T05:45:18.436Z,101385.91
2022-10-08T05:50:34.062Z,101397.84
2022-10-08T05:55:49.350Z,101397.09
2022-10-08T06:01:05.057Z,101404.72
2022-10-08T06:06:20.019Z,101415.38
2022-10-08T06:11:35.334Z,101417.88
2022-10-08T06:16:51.044Z,101425.97
2022-10-08T06:22:05.825Z,101436.66
2022-10-08T06:27:21.092Z,101440.53
2022-10-08T06:32:36.360Z,101456.34
2022-10-08T06:37:52.061Z,101474.91
2022-10-08T06:43:07.036Z,101477.75
2022-10-08T06:48:22.169Z,101492.03
2022-10-08T06:53:37.382Z,101494.34
2022-10-08T06:58:52.873Z,101498.19
2022-10-08T07:04:07.841Z,101506.09
2022-10-08T07:09:23.058Z,101512.75
2022-10-08T07:14:38.046Z,101520.16
2022-10-08T07:19:53.075Z,101528.81
2022-10-08T07:25:08.129Z,101535.47
2022-10-08T07:30:23.120Z,101543.56
2022-10-08T07:35:38.093Z,101545.38
2022-10-08T07:40:53.380Z,101563.44
2022-10-08T07:46:09.497Z,101568.00
2022-10-08T07:51:25.044Z,101573.38
2022-10-08T07:56:40.307Z,101580.25
2022-10-08T08:01:56.102Z,101590.44
2022-10-08T08:07:11.123Z,101599.28
2022-10-08T08:12:26.093Z,101601.88
2022-10-08T08:17:41.066Z,101614.06
2022-10-08T08:22:56.099Z,101613.59
2022-10-08T08:24:10.637Z,101770.34
2022-10-08T08:26:39.860Z,101781.81
2022-10-08T08:28:11.070Z,101625.78
2022-10-08T08:29:08.795Z,101779.34
2022-10-08T08:31:38.170Z,101785.56
2022-10-08T08:33:26.386Z,101633.94
2022-10-08T08:34:11.230Z,101787.75
2022-10-08T08:36:39.961Z,101788.97
2022-10-08T08:38:42.082Z,101646.91
2022-10-08T08:39:08.696Z,101799.25
2022-10-08T08:41:37.349Z,101802.47
2022-10-08T08:43:57.410Z,101647.97
2022-10-08T08:44:06.022Z,101808.53
2022-10-08T08:46:35.321Z,101813.63
2022-10-08T08:49:04.622Z,101820.50
2022-10-08T08:49:13.108Z,101663.44
2022-10-08T08:51:37.991Z,101821.19
2022-10-08T08:54:07.270Z,101820.94
2022-10-08T08:55:05.824Z,101671.31
2022-10-08T08:56:36.457Z,101826.09
2022-10-08T08:59:05.199Z,101828.00
2022-10-08T09:00:21.280Z,101675.16
2022-10-08T09:01:34.502Z,101830.19
2022-10-08T09:04:03.615Z,101828.63
2022-10-08T09:05:36.405Z,101673.41
2022-10-08T09:06:32.493Z,101839.72
2022-10-08T09:09:01.063Z,101834.13
2022-10-08T09:10:52.117Z,101688.38
2022-10-08T09:11:29.511Z,101838.63
2022-10-08T09:13:57.580Z,101842.56
2022-10-08T09:16:07.047Z,101683.81
2022-10-08T09:16:26.487Z,101840.44
2022-10-08T09:18:55.484Z,101845.56
2022-10-08T09:21:22.052Z,101690.41
2022-10-08T09:21:24.172Z,101837.59
2022-10-08T09:23:53.097Z,101847.00
2022-10-08T09:26:21.857Z,101853.00
2022-10-08T09:26:37.387Z,101701.34
2022-10-08T09:28:51.157Z,101858.66
2022-10-08T09:31:54.390Z,101713.78
2022-10-08T09:37:10.132Z,101721.91
2022-10-08T09:42:26.101Z,101727.00
2022-10-08T09:47:41.389Z,101733.59
2022-10-08T09:52:56.443Z,101736.41
2022-10-08T09:58:12.191Z,101750.84
2022-10-08T10:03:27.388Z,101756.94
2022-10-08T10:08:43.149Z,101761.78
2022-10-08T10:13:58.056Z,101772.94
2022-10-08T10:19:13.103Z,101772.69
2022-10-08T10:24:28.126Z,101771.66
2022-10-08T10:29:43.085Z,101776.00
2022-10-08T10:34:58.129Z,101783.09
2022-10-08T10:40:13.037Z,101787.41
2022-10-08T10:45:28.422Z,101786.91
2022-10-08T10:50:44.134Z,101786.38
2022-10-08T10:55:59.125Z,101790.19
2022-10-08T11:01:14.140Z,101787.66
2022-10-08T11:06:29.119Z,101789.91
2022-10-08T11:11:44.103Z,101795.75
2022-10-08T11:16:59.097Z,101791.19
2022-10-08T11:22:14.082Z,101794.00
2022-10-08T11:27:29.081Z,101790.94
2022-10-08T11:32:44.183Z,101797.78
2022-10-08T11:37:59.062Z,101807.19
2022-10-08T11:43:14.115Z,101802.63
2022-10-08T11:48:29.444Z,101789.94
2022-10-08T11:53:45.099Z,101800.06
2022-10-08T11:59:00.086Z,101810.25
2022-10-08T12:04:15.062Z,101812.75
2022-10-08T12:09:30.077Z,101809.97
2022-10-08T12:14:45.100Z,101810.50
2022-10-08T12:20:00.054Z,101812.75
2022-10-08T12:25:15.100Z,101824.44
2022-10-08T12:30:30.060Z,101821.66
2022-10-08T12:35:45.384Z,101823.19
2022-10-08T12:41:01.135Z,101824.19
2022-10-08T12:46:16.179Z,101830.53
2022-10-08T12:51:31.090Z,101826.22
2022-10-08T12:56:46.089Z,101833.06
2022-10-08T13:02:01.145Z,101834.06
2022-10-08T13:07:15.931Z,101842.22
2022-10-08T13:12:31.211Z,101843.47
2022-10-08T13:17:46.457Z,101838.38
2022-10-08T13:23:02.150Z,101851.09
2022-10-08T13:28:17.210Z,101853.88
2022-10-08T13:33:32.199Z,101857.44
2022-10-08T13:38:47.149Z,101854.66
2022-10-08T13:44:02.406Z,101863.25
2022-10-08T13:49:18.057Z,101860.47
2022-10-08T13:54:33.413Z,101874.94
2022-10-08T13:59:49.056Z,101866.28
2022-10-08T14:05:04.386Z,101875.94
2022-10-08T14:10:20.142Z,101871.63
2022-10-08T14:15:35.060Z,101883.81
2022-10-08T14:20:50.101Z,101882.53
2022-10-08T14:26:05.144Z,101881.78
2022-10-08T14:31:20.142Z,101877.47
2022-10-08T14:36:35.428Z,101877.94
2022-10-08T14:41:51.106Z,101890.91
2022-10-08T14:47:06.378Z,101895.19
2022-10-08T14:52:22.402Z,101896.72
2022-10-08T14:57:38.173Z,101900.28
2022-10-08T15:02:53.463Z,101899.53
2022-10-08T15:08:09.169Z,101898.00
2022-10-08T15:13:24.077Z,101893.72
2022-10-08T15:18:39.081Z,101902.06
2022-10-08T15:23:54.090Z,101902.81
2022-10-08T15:29:09.108Z,101903.84
2022-10-08T15:34:24.096Z,101910.44
2022-10-08T15:39:39.347Z,101924.41
2022-10-08T15:44:55.116Z,101927.41
2022-10-08T15:50:09.875Z,101930.72
2022-10-08T15:55:24.892Z,101941.63
2022-10-08T16:00:40.179Z,101942.91
2022-10-08T16:05:55.394Z,101950.47
2022-10-08T16:11:11.389Z,101956.06
2022-10-08T16:16:27.182Z,101964.41
2022-10-08T16:21:42.403Z,101958.06
2022-10-08T16:26:58.100Z,101974.34
2022-10-08T16:32:13.492Z,101981.47
2022-10-08T16:37:29.430Z,101985.78
2022-10-08T16:42:45.304Z,101994.88
2022-10-08T16:48:01.146Z,101993.63
2022-10-08T16:53:16.104Z,102005.03
2022-10-08T16:58:30.883Z,102006.31
2022-10-08T17:03:46.097Z,102009.09
2022-10-08T17:09:01.151Z,102018.22
2022-10-08T17:14:16.103Z,102021.03
2022-10-08T17:19:31.093Z,102028.09
2022-10-08T17:24:46.124Z,102044.38
2022-10-08T17:30:01.102Z,102047.16
2022-10-08T17:35:16.395Z,102055.53
2022-10-08T17:40:32.193Z,102059.09
2022-10-08T17:45:47.172Z,102065.44
2022-10-08T17:51:02.448Z,102075.31
2022-10-08T17:56:18.069Z,102081.19
2022-10-08T18:01:32.967Z,102079.97
2022-10-08T18:06:48.455Z,102091.16
2022-10-08T18:12:04.798Z,102092.72
2022-10-08T18:17:20.132Z,102088.66
2022-10-08T18:22:35.470Z,102106.69
2022-10-08T18:27:51.426Z,102101.09
2022-10-08T18:33:07.130Z,102112.53
2022-10-08T18:38:22.191Z,102119.91
2022-10-08T18:43:37.155Z,102132.38
2022-10-08T18:48:53.121Z,102135.66
2022-10-08T18:54:08.422Z,102142.53
2022-10-08T18:59:24.481Z,102134.69
2022-10-08T19:04:40.166Z,102136.97
2022-10-08T19:09:55.134Z,102140.25
2022-10-08T19:15:10.169Z,102140.50
2022-10-08T19:20:25.115Z,102152.19
2022-10-08T19:25:40.109Z,102155.75
2022-10-08T19:30:55.272Z,102160.34
2022-10-08T19:36:10.105Z,102165.44
2022-10-08T19:41:25.158Z,102164.41
2022-10-08T19:46:40.206Z,102173.03
2022-10-08T19:51:55.095Z,102174.56
2022-10-08T19:57:10.090Z,102172.03
2022-10-08T20:02:25.310Z,102178.66
2022-10-08T20:07:40.122Z,102185.25
2022-10-08T20:12:55.154Z,102189.81
2022-10-08T20:18:09.944Z,102187.03
2022-10-08T20:23:25.162Z,102192.13
2022-10-08T20:28:40.221Z,102199.75
2022-10-08T20:33:55.370Z,102196.47
2022-10-08T20:39:11.396Z,102194.41
2022-10-08T20:44:27.498Z,102201.53
2022-10-08T20:49:43.422Z,102197.47
2022-10-08T20:54:59.123Z,102193.91
2022-10-08T21:00:14.137Z,102193.91
2022-10-08T21:05:29.375Z,102188.06
2022-10-08T21:10:45.217Z,102196.69
2022-10-08T21:16:00.724Z,102190.59
2022-10-08T21:21:16.126Z,102200.25
2022-10-08T21:26:31.178Z,102204.06
2022-10-08T21:31:46.186Z,102210.91
2022-10-08T21:37:01.384Z,102202.53
2022-10-08T21:42:17.141Z,102216.03
2022-10-08T21:47:32.117Z,102209.41
2022-10-08T21:52:47.543Z,102219.06
2022-10-08T21:58:05.142Z,102211.94
2022-10-08T22:03:20.113Z,102204.09
2022-10-08T22:08:35.235Z,102199.75
2022-10-08T22:13:50.160Z,102207.34
2022-10-08T22:19:05.125Z,102209.38
2022-10-08T22:24:20.126Z,102201.53
2022-10-08T22:29:35.176Z,102198.47
2022-10-08T22:34:50.452Z,102201.25
2022-10-08T22:40:06.132Z,102197.97
2022-10-08T22:45:21.468Z,102213.75
2022-10-08T22:50:37.135Z,102209.13
2022-10-08T22:55:52.124Z,102200.72
2022-10-08T23:01:07.176Z,102200.50
2022-10-08T23:06:22.494Z,102200.50
2022-10-08T23:11:38.517Z,102194.91
2022-10-08T23:16:54.245Z,102194.66
2022-10-08T23:22:09.428Z,102199.97
2022-10-08T23:27:25.112Z,102188.56
2022-10-08T23:32:40.162Z,102191.34
2022-10-08T23:37:54.892Z,102194.13
2022-10-08T23:43:10.318Z,102189.81
2022-10-08T23:48:26.177Z,102198.19
2022-10-08T23:53:41.174Z,102196.69
2022-10-08T23:58:56.166Z,102203.78
